createdAt,value
2022-11-03T00:00:25.612Z,20.63
2022-11-03T00:00:57.006Z,20.61
2022-11-03T00:01:28.499Z,20.63
2022-11-03T00:02:00.038Z,20.62
2022-11-03T00:02:31.648Z,20.62
2022-11-03T00:03:03.446Z,20.62
2022-11-03T00:03:35.097Z,20.62
2022-11-03T00:04:06.481Z,20.62
2022-11-03T00:04:37.873Z,20.62
2022-11-03T00:05:09.267Z,20.62
2022-11-03T00:05:40.656Z,20.61
2022-11-03T00:06:12.070Z,20.61
2022-11-03T00:06:43.557Z,20.60
2022-11-03T00:07:14.946Z,20.60
2022-11-03T00:07:46.331Z,20.61
2022-11-03T00:08:17.736Z,20.61
2022-11-03T00:08:49.140Z,20.61
2022-11-03T00:09:20.530Z,20.59
2022-11-03T00:09:51.931Z,20.61
2022-11-03T00:10:23.327Z,20.61
2022-11-03T00:10:54.729Z,20.60
2022-11-03T00:11:26.129Z,20.61
2022-11-03T00:11:57.522Z,20.60
2022-11-03T00:12:28.911Z,20.60
2022-11-03T00:13:00.366Z,20.59
2022-11-03T00:13:31.754Z,20.59
2022-11-03T00:14:03.159Z,20.59
2022-11-03T00:14:34.548Z,20.58
2022-11-03T00:15:05.955Z,20.58
2022-11-03T00:15:37.353Z,20.58
2022-11-03T00:16:08.753Z,20.58
2022-11-03T00:16:40.232Z,20.59
2022-11-03T00:17:11.615Z,20.58
2022-11-03T00:17:43.003Z,20.57
2022-11-03T00:18:14.391Z,20.58
2022-11-03T00:18:45.774Z,20.58
2022-11-03T00:19:17.442Z,20.57
2022-11-03T00:19:49.046Z,20.56
2022-11-03T00:20:20.455Z,20.56
2022-11-03T00:20:51.866Z,20.56
2022-11-03T00:21:23.255Z,20.57
2022-11-03T00:21:54.831Z,20.56
2022-11-03T00:22:26.218Z,20.56
2022-11-03T00:22:57.616Z,20.57
2022-11-03T00:23:29.015Z,20.57
2022-11-03T00:24:00.423Z,20.56
2022-11-03T00:24:31.823Z,20.55
2022-11-03T00:25:03.215Z,20.56
2022-11-03T00:25:34.598Z,20.55
2022-11-03T00:26:06.013Z,20.56
2022-11-03T00:26:37.427Z,20.56
2022-11-03T00:27:08.871Z,20.56
2022-11-03T00:27:40.267Z,20.55
2022-11-03T00:28:11.671Z,20.56
2022-11-03T00:28:43.218Z,20.56
2022-11-03T00:29:14.620Z,20.56
2022-11-03T00:29:46.019Z,20.56
2022-11-03T00:30:17.406Z,20.56
2022-11-03T00:30:48.791Z,20.55
2022-11-03T00:31:20.210Z,20.55
2022-11-03T00:31:51.598Z,20.55
2022-11-03T00:32:23.010Z,20.55
2022-11-03T00:32:54.409Z,20.55
2022-11-03T00:33:25.802Z,20.55
2022-11-03T00:33:57.190Z,20.54
2022-11-03T00:34:28.595Z,20.54
2022-11-03T00:34:59.988Z,20.54
2022-11-03T00:35:31.378Z,20.54
2022-11-03T00:36:02.801Z,20.52
2022-11-03T00:36:34.201Z,20.53
2022-11-03T00:37:05.597Z,20.53
2022-11-03T00:37:37.041Z,20.53
2022-11-03T00:38:08.435Z,20.52
2022-11-03T00:38:39.892Z,20.54
2022-11-03T00:39:11.317Z,20.54
2022-11-03T00:39:42.701Z,20.52
2022-11-03T00:40:14.114Z,20.52
2022-11-03T00:40:45.518Z,20.52
2022-11-03T00:41:16.916Z,20.51
2022-11-03T00:41:48.303Z,20.51
2022-11-03T00:42:19.697Z,20.50
2022-11-03T00:42:51.161Z,20.49
2022-11-03T00:43:22.558Z,20.49
2022-11-03T00:43:53.949Z,20.49
2022-11-03T00:44:25.355Z,20.50
2022-11-03T00:44:56.761Z,20.50
2022-11-03T00:45:28.150Z,20.49
2022-11-03T00:45:59.553Z,20.49
2022-11-03T00:46:30.940Z,20.48
2022-11-03T00:47:02.322Z,20.48
2022-11-03T00:47:33.728Z,20.47
2022-11-03T00:48:05.221Z,20.48
2022-11-03T00:48:36.630Z,20.47
2022-11-03T00:49:08.024Z,20.48
2022-11-03T00:49:39.414Z,20.46
2022-11-03T00:50:10.811Z,20.46
2022-11-03T00:50:42.204Z,20.47
2022-11-03T00:51:13.600Z,20.46
2022-11-03T00:51:45.012Z,20.46
2022-11-03T00:52:16.429Z,20.46
2022-11-03T00:52:47.819Z,20.46
2022-11-03T00:53:19.283Z,20.46
2022-11-03T00:53:50.688Z,20.45
2022-11-03T00:54:22.090Z,20.47
2022-11-03T00:54:55.286Z,20.45
2022-11-03T00:55:26.984Z,20.46
2022-11-03T00:55:58.371Z,20.46
2022-11-03T00:56:29.766Z,20.46
2022-11-03T00:57:01.188Z,20.46
2022-11-03T00:57:32.596Z,20.46
2022-11-03T00:58:03.989Z,20.45
2022-11-03T00:58:35.478Z,20.45
2022-11-03T00:59:06.894Z,20.46
2022-11-03T00:59:38.292Z,20.45
2022-11-03T01:00:09.688Z,20.43
2022-11-03T01:00:41.105Z,20.44
2022-11-03T01:01:12.621Z,20.44
2022-11-03T01:01:48.109Z,20.44
2022-11-03T01:02:19.716Z,20.43
2022-11-03T01:02:51.147Z,20.42
2022-11-03T01:03:22.535Z,20.43
2022-11-03T01:03:53.956Z,20.43
2022-11-03T01:04:25.343Z,20.43
2022-11-03T01:04:56.749Z,20.41
2022-11-03T01:05:28.139Z,20.41
2022-11-03T01:05:59.555Z,20.42
2022-11-03T01:06:30.955Z,20.40
2022-11-03T01:07:02.361Z,20.39
2022-11-03T01:07:33.761Z,20.40
2022-11-03T01:08:05.166Z,20.39
2022-11-03T01:08:36.576Z,20.39
2022-11-03T01:09:08.107Z,20.39
2022-11-03T01:09:39.499Z,20.39
2022-11-03T01:10:10.891Z,20.39
2022-11-03T01:10:42.274Z,20.39
2022-11-03T01:11:13.662Z,20.38
2022-11-03T01:11:45.059Z,20.38
2022-11-03T01:12:16.453Z,20.39
2022-11-03T01:12:47.847Z,20.38
2022-11-03T01:13:19.235Z,20.38
2022-11-03T01:13:50.627Z,20.38
2022-11-03T01:14:22.164Z,20.37
2022-11-03T01:14:53.581Z,20.38
2022-11-03T01:15:24.975Z,20.37
2022-11-03T01:15:56.374Z,20.37
2022-11-03T01:16:27.777Z,20.37
2022-11-03T01:16:59.174Z,20.36
2022-11-03T01:17:30.562Z,20.36
2022-11-03T01:18:01.953Z,20.36
2022-11-03T01:18:33.342Z,20.36
2022-11-03T01:19:04.757Z,20.35
2022-11-03T01:19:36.242Z,20.36
2022-11-03T01:20:07.640Z,20.35
2022-11-03T01:20:39.036Z,20.35
2022-11-03T01:21:10.436Z,20.36
2022-11-03T01:21:41.824Z,20.35
2022-11-03T01:22:13.243Z,20.34
2022-11-03T01:22:44.632Z,20.35
2022-11-03T01:23:16.014Z,20.34
2022-11-03T01:23:47.425Z,20.35
2022-11-03T01:24:18.838Z,20.34
2022-11-03T01:24:50.248Z,20.35
2022-11-03T01:25:21.629Z,20.34
2022-11-03T01:25:53.051Z,20.35
2022-11-03T01:26:24.438Z,20.34
2022-11-03T01:26:55.831Z,20.35
2022-11-03T01:27:27.226Z,20.34
2022-11-03T01:27:58.676Z,20.34
2022-11-03T01:28:30.126Z,20.33
2022-11-03T01:29:01.523Z,20.34
2022-11-03T01:29:33.018Z,20.33
2022-11-03T01:30:04.412Z,20.34
2022-11-03T01:30:35.818Z,20.33
2022-11-03T01:31:07.223Z,20.34
2022-11-03T01:31:38.701Z,20.32
2022-11-03T01:32:10.106Z,20.33
2022-11-03T01:32:41.519Z,20.32
2022-11-03T01:33:12.919Z,20.33
2022-11-03T01:33:44.331Z,20.33
2022-11-03T01:34:15.732Z,20.33
2022-11-03T01:34:47.170Z,20.32
2022-11-03T01:35:18.554Z,20.33
2022-11-03T01:35:49.964Z,20.32
2022-11-03T01:36:21.352Z,20.32
2022-11-03T01:36:52.750Z,20.31
2022-11-03T01:37:24.135Z,20.32
2022-11-03T01:37:55.522Z,20.31
2022-11-03T01:38:26.926Z,20.32
2022-11-03T01:38:58.338Z,20.32
2022-11-03T01:39:29.726Z,20.31
2022-11-03T01:40:01.158Z,20.31
2022-11-03T01:40:32.547Z,20.32
2022-11-03T01:41:03.933Z,20.31
2022-11-03T01:41:35.323Z,20.32
2022-11-03T01:42:06.731Z,20.32
2022-11-03T01:42:38.124Z,20.31
2022-11-03T01:43:09.517Z,20.31
2022-11-03T01:43:40.911Z,20.30
2022-11-03T01:44:12.330Z,20.31
2022-11-03T01:44:43.740Z,20.31
2022-11-03T01:45:15.190Z,20.31
2022-11-03T01:45:46.582Z,20.31
2022-11-03T01:46:17.973Z,20.30
2022-11-03T01:46:49.363Z,20.30
2022-11-03T01:47:20.751Z,20.31
2022-11-03T01:47:52.193Z,20.30
2022-11-03T01:48:23.597Z,20.30
2022-11-03T01:48:54.990Z,20.31
2022-11-03T01:49:26.754Z,20.30
2022-11-03T01:49:58.143Z,20.29
2022-11-03T01:50:29.679Z,20.29
2022-11-03T01:51:01.065Z,20.29
2022-11-03T01:51:32.460Z,20.29
2022-11-03T01:52:03.867Z,20.28
2022-11-03T01:52:35.252Z,20.30
2022-11-03T01:53:06.959Z,20.29
2022-11-03T01:53:38.434Z,20.28
2022-11-03T01:54:09.834Z,20.29
2022-11-03T01:54:41.228Z,20.29
2022-11-03T01:55:12.620Z,20.28
2022-11-03T01:55:44.156Z,20.29
2022-11-03T01:56:15.575Z,20.29
2022-11-03T01:56:46.976Z,20.30
2022-11-03T01:57:18.371Z,20.28
2022-11-03T01:57:49.763Z,20.29
2022-11-03T01:58:21.154Z,20.28
2022-11-03T01:58:52.542Z,20.28
2022-11-03T01:59:23.932Z,20.27
2022-11-03T01:59:55.326Z,20.27
2022-11-03T02:00:26.711Z,20.28
2022-11-03T02:00:58.312Z,20.27
2022-11-03T02:01:29.916Z,20.27
2022-11-03T02:02:01.482Z,20.26
2022-11-03T02:02:33.012Z,20.26
2022-11-03T02:03:04.848Z,20.26
2022-11-03T02:03:36.444Z,20.26
2022-11-03T02:04:07.856Z,20.27
2022-11-03T02:04:39.242Z,20.27
2022-11-03T02:05:10.644Z,20.26
2022-11-03T02:05:42.030Z,20.26
2022-11-03T02:06:13.477Z,20.25
2022-11-03T02:06:44.871Z,20.26
2022-11-03T02:07:16.260Z,20.25
2022-11-03T02:07:47.667Z,20.25
2022-11-03T02:08:19.054Z,20.25
2022-11-03T02:08:50.455Z,20.24
2022-11-03T02:09:21.842Z,20.23
2022-11-03T02:09:53.228Z,20.23
2022-11-03T02:10:24.629Z,20.23
2022-11-03T02:10:56.040Z,20.22
2022-11-03T02:11:27.536Z,20.23
2022-11-03T02:11:59.014Z,20.22
2022-11-03T02:12:30.547Z,20.22
2022-11-03T02:13:01.954Z,20.21
2022-11-03T02:13:33.418Z,20.21
2022-11-03T02:14:04.831Z,20.20
2022-11-03T02:14:36.220Z,20.21
2022-11-03T02:15:07.612Z,20.21
2022-11-03T02:15:39.006Z,20.21
2022-11-03T02:16:10.401Z,20.19
2022-11-03T02:16:44.888Z,20.21
2022-11-03T02:17:19.242Z,20.20
2022-11-03T02:17:50.635Z,20.19
2022-11-03T02:18:22.038Z,20.20
2022-11-03T02:18:53.435Z,20.19
2022-11-03T02:19:24.827Z,20.20
2022-11-03T02:19:56.215Z,20.20
2022-11-03T02:20:27.632Z,20.21
2022-11-03T02:20:59.032Z,20.19
2022-11-03T02:21:30.422Z,20.19
2022-11-03T02:22:01.851Z,20.19
2022-11-03T02:22:33.261Z,20.18
2022-11-03T02:23:04.878Z,20.19
2022-11-03T02:23:36.503Z,20.18
2022-11-03T02:24:07.898Z,20.19
2022-11-03T02:24:39.317Z,20.18
2022-11-03T02:25:10.717Z,20.17
2022-11-03T02:25:42.129Z,20.18
2022-11-03T02:26:13.539Z,20.17
2022-11-03T02:26:44.925Z,20.17
2022-11-03T02:27:16.491Z,20.18
2022-11-03T02:27:47.875Z,20.18
2022-11-03T02:28:19.267Z,20.18
2022-11-03T02:28:50.660Z,20.17
2022-11-03T02:29:22.072Z,20.17
2022-11-03T02:29:53.496Z,20.17
2022-11-03T02:30:24.900Z,20.17
2022-11-03T02:30:56.284Z,20.17
2022-11-03T02:31:27.695Z,20.17
2022-11-03T02:31:59.084Z,20.18
2022-11-03T02:32:30.506Z,20.18
2022-11-03T02:33:01.920Z,20.17
2022-11-03T02:33:33.315Z,20.18
2022-11-03T02:34:04.714Z,20.16
2022-11-03T02:34:36.121Z,20.16
2022-11-03T02:35:07.516Z,20.17
2022-11-03T02:35:38.903Z,20.17
2022-11-03T02:36:10.291Z,20.16
2022-11-03T02:36:41.693Z,20.17
2022-11-03T02:37:13.074Z,20.16
2022-11-03T02:37:44.613Z,20.16
2022-11-03T02:38:16.003Z,20.17
2022-11-03T02:38:47.397Z,20.16
2022-11-03T02:39:18.847Z,20.16
2022-11-03T02:39:50.245Z,20.16
2022-11-03T02:40:21.633Z,20.16
2022-11-03T02:40:53.032Z,20.16
2022-11-03T02:41:24.434Z,20.16
2022-11-03T02:41:55.827Z,20.16
2022-11-03T02:42:27.224Z,20.16
2022-11-03T02:42:58.756Z,20.15
2022-11-03T02:43:30.148Z,20.15
2022-11-03T02:44:01.540Z,20.15
2022-11-03T02:44:32.927Z,20.15
2022-11-03T02:45:04.352Z,20.15
2022-11-03T02:45:35.762Z,20.15
2022-11-03T02:46:07.147Z,20.15
2022-11-03T02:46:38.562Z,20.15
2022-11-03T02:47:09.951Z,20.15
2022-11-03T02:47:41.335Z,20.14
2022-11-03T02:48:12.785Z,20.14
2022-11-03T02:48:44.175Z,20.14
2022-11-03T02:49:15.566Z,20.15
2022-11-03T02:49:47.017Z,20.15
2022-11-03T02:50:18.469Z,20.14
2022-11-03T02:50:49.848Z,20.14
2022-11-03T02:51:21.239Z,20.13
2022-11-03T02:51:52.629Z,20.13
2022-11-03T02:52:24.021Z,20.13
2022-11-03T02:52:55.431Z,20.13
2022-11-03T02:53:26.875Z,20.13
2022-11-03T02:53:58.286Z,20.12
2022-11-03T02:54:29.683Z,20.12
2022-11-03T02:55:01.070Z,20.12
2022-11-03T02:55:32.471Z,20.12
2022-11-03T02:56:03.869Z,20.11
2022-11-03T02:56:35.278Z,20.12
2022-11-03T02:57:06.667Z,20.12
2022-11-03T02:57:38.054Z,20.11
2022-11-03T02:58:09.541Z,20.12
2022-11-03T02:58:41.034Z,20.11
2022-11-03T02:59:12.445Z,20.11
2022-11-03T02:59:43.846Z,20.10
2022-11-03T03:00:15.233Z,20.10
2022-11-03T03:00:46.714Z,20.10
2022-11-03T03:01:18.284Z,20.10
2022-11-03T03:01:49.788Z,20.08
2022-11-03T03:02:21.360Z,20.08
2022-11-03T03:02:52.782Z,20.10
2022-11-03T03:03:24.176Z,20.08
2022-11-03T03:03:55.592Z,20.08
2022-11-03T03:04:26.978Z,20.08
2022-11-03T03:04:58.359Z,20.08
2022-11-03T03:05:29.775Z,20.08
2022-11-03T03:06:01.164Z,20.08
2022-11-03T03:06:32.569Z,20.08
2022-11-03T03:07:04.188Z,20.08
2022-11-03T03:07:35.601Z,20.08
2022-11-03T03:08:06.990Z,20.08
2022-11-03T03:08:38.438Z,20.07
2022-11-03T03:09:09.831Z,20.08
2022-11-03T03:09:41.221Z,20.08
2022-11-03T03:10:12.624Z,20.08
2022-11-03T03:10:44.052Z,20.08
2022-11-03T03:11:15.453Z,20.07
2022-11-03T03:11:46.907Z,20.10
2022-11-03T03:12:18.299Z,20.07
2022-11-03T03:12:49.716Z,20.08
2022-11-03T03:13:21.107Z,20.06
2022-11-03T03:13:52.596Z,20.08
2022-11-03T03:14:24.009Z,20.08
2022-11-03T03:14:55.394Z,20.06
2022-11-03T03:15:26.774Z,20.06
2022-11-03T03:15:58.163Z,20.06
2022-11-03T03:16:29.551Z,20.06
2022-11-03T03:17:00.963Z,20.06
2022-11-03T03:17:32.519Z,20.06
2022-11-03T03:18:03.910Z,20.07
2022-11-03T03:18:35.315Z,20.06
2022-11-03T03:19:06.759Z,20.05
2022-11-03T03:19:38.151Z,20.05
2022-11-03T03:20:09.574Z,20.05
2022-11-03T03:20:40.971Z,20.06
2022-11-03T03:21:12.359Z,20.06
2022-11-03T03:21:43.749Z,20.04
2022-11-03T03:22:15.139Z,20.06
2022-11-03T03:22:46.535Z,20.05
2022-11-03T03:23:18.387Z,20.05
2022-11-03T03:23:50.095Z,20.05
2022-11-03T03:24:21.505Z,20.03
2022-11-03T03:24:52.910Z,20.04
2022-11-03T03:25:24.302Z,20.03
2022-11-03T03:25:55.711Z,20.02
2022-11-03T03:26:27.121Z,20.03
2022-11-03T03:26:58.531Z,20.04
2022-11-03T03:27:29.917Z,20.03
2022-11-03T03:28:01.304Z,20.02
2022-11-03T03:28:32.695Z,20.02
2022-11-03T03:29:04.181Z,20.03
2022-11-03T03:29:35.577Z,20.03
2022-11-03T03:30:06.984Z,20.01
2022-11-03T03:30:38.374Z,20.01
2022-11-03T03:31:09.770Z,20.02
2022-11-03T03:31:41.162Z,20.01
2022-11-03T03:32:12.623Z,20.01
2022-11-03T03:32:44.016Z,20.01
2022-11-03T03:33:15.450Z,20.01
2022-11-03T03:33:47.968Z,20.01
2022-11-03T03:34:36.326Z,20.00
2022-11-03T03:35:07.935Z,20.00
2022-11-03T03:35:39.355Z,19.99
2022-11-03T03:36:10.738Z,19.99
2022-11-03T03:36:42.118Z,20.00
2022-11-03T03:37:13.502Z,20.00
2022-11-03T03:37:44.895Z,19.99
2022-11-03T03:38:16.289Z,20.00
2022-11-03T03:38:47.700Z,19.99
2022-11-03T03:39:19.110Z,19.98
2022-11-03T03:39:50.506Z,19.98
2022-11-03T03:40:21.895Z,19.99
2022-11-03T03:40:53.303Z,19.98
2022-11-03T03:41:24.706Z,19.98
2022-11-03T03:41:56.100Z,19.98
2022-11-03T03:42:27.485Z,19.97
2022-11-03T03:42:58.870Z,19.98
2022-11-03T03:43:30.254Z,19.98
2022-11-03T03:44:01.643Z,19.97
2022-11-03T03:44:33.131Z,19.98
2022-11-03T03:45:04.540Z,19.97
2022-11-03T03:45:36.008Z,19.97
2022-11-03T03:46:07.407Z,19.97
2022-11-03T03:46:38.798Z,19.97
2022-11-03T03:47:10.184Z,19.97
2022-11-03T03:47:41.575Z,19.97
2022-11-03T03:48:12.971Z,19.96
2022-11-03T03:48:44.354Z,19.96
2022-11-03T03:49:15.771Z,19.95
2022-11-03T03:49:47.174Z,19.96
2022-11-03T03:50:18.558Z,19.97
2022-11-03T03:50:49.982Z,19.96
2022-11-03T03:51:21.399Z,19.95
2022-11-03T03:51:52.828Z,19.96
2022-11-03T03:52:24.231Z,19.96
2022-11-03T03:52:55.645Z,19.96
2022-11-03T03:53:27.050Z,19.96
2022-11-03T03:53:58.457Z,19.95
2022-11-03T03:54:30.047Z,19.95
2022-11-03T03:55:01.439Z,19.94
2022-11-03T03:55:32.838Z,19.94
2022-11-03T03:56:04.242Z,19.94
2022-11-03T03:56:35.631Z,19.95
2022-11-03T03:57:07.018Z,19.96
2022-11-03T03:57:38.403Z,19.95
2022-11-03T03:58:10.401Z,19.94
2022-11-03T03:58:41.822Z,19.93
2022-11-03T03:59:13.212Z,19.94
2022-11-03T03:59:44.704Z,19.93
2022-11-03T04:00:16.159Z,19.94
2022-11-03T04:00:47.652Z,19.94
2022-11-03T04:01:19.240Z,19.93
2022-11-03T04:01:50.839Z,19.94
2022-11-03T04:02:22.389Z,19.93
2022-11-03T04:02:53.838Z,19.93
2022-11-03T04:03:25.222Z,19.93
2022-11-03T04:03:56.619Z,19.92
2022-11-03T04:04:28.009Z,19.92
2022-11-03T04:04:59.484Z,19.93
2022-11-03T04:05:30.874Z,19.93
2022-11-03T04:06:02.262Z,19.92
2022-11-03T04:06:33.650Z,19.93
2022-11-03T04:07:05.036Z,19.92
2022-11-03T04:07:42.371Z,19.92
2022-11-03T04:08:15.119Z,19.92
2022-11-03T04:08:46.502Z,19.93
2022-11-03T04:09:17.903Z,19.93
2022-11-03T04:09:49.383Z,19.92
2022-11-03T04:10:20.811Z,19.92
2022-11-03T04:10:52.220Z,19.93
2022-11-03T04:11:23.611Z,19.92
2022-11-03T04:11:55.015Z,19.91
2022-11-03T04:12:26.403Z,19.92
2022-11-03T04:12:57.811Z,19.92
2022-11-03T04:13:29.263Z,19.92
2022-11-03T04:14:00.655Z,19.93
2022-11-03T04:14:32.049Z,19.91
2022-11-03T04:15:03.615Z,19.91
2022-11-03T04:15:35.087Z,19.91
2022-11-03T04:16:06.487Z,19.91
2022-11-03T04:16:37.876Z,19.90
2022-11-03T04:17:09.277Z,19.91
2022-11-03T04:17:40.716Z,19.90
2022-11-03T04:18:12.203Z,19.90
2022-11-03T04:18:43.611Z,19.91
2022-11-03T04:19:15.059Z,19.91
2022-11-03T04:19:46.481Z,19.89
2022-11-03T04:20:17.863Z,19.89
2022-11-03T04:20:49.327Z,19.89
2022-11-03T04:21:20.724Z,19.88
2022-11-03T04:21:52.139Z,19.89
2022-11-03T04:22:23.531Z,19.89
2022-11-03T04:22:54.927Z,19.89
2022-11-03T04:23:26.315Z,19.89
2022-11-03T04:23:57.731Z,19.89
2022-11-03T04:24:29.120Z,19.90
2022-11-03T04:25:00.505Z,19.89
2022-11-03T04:25:31.917Z,19.89
2022-11-03T04:26:03.383Z,19.89
2022-11-03T04:26:34.799Z,19.89
2022-11-03T04:27:06.205Z,19.88
2022-11-03T04:27:37.617Z,19.88
2022-11-03T04:28:09.082Z,19.88
2022-11-03T04:28:40.491Z,19.88
2022-11-03T04:29:11.878Z,19.88
2022-11-03T04:29:43.270Z,19.88
2022-11-03T04:30:14.662Z,19.88
2022-11-03T04:30:46.067Z,19.88
2022-11-03T04:31:17.574Z,19.87
2022-11-03T04:31:48.959Z,19.87
2022-11-03T04:32:20.347Z,19.86
2022-11-03T04:32:51.745Z,19.87
2022-11-03T04:33:23.153Z,19.86
2022-11-03T04:33:54.559Z,19.88
2022-11-03T04:34:25.961Z,19.86
2022-11-03T04:34:57.351Z,19.87
2022-11-03T04:35:28.742Z,19.85
2022-11-03T04:36:00.264Z,19.86
2022-11-03T04:36:31.737Z,19.86
2022-11-03T04:37:03.123Z,19.86
2022-11-03T04:37:34.514Z,19.85
2022-11-03T04:38:06.220Z,19.84
2022-11-03T04:38:37.934Z,19.87
2022-11-03T04:39:09.436Z,19.86
2022-11-03T04:39:40.878Z,19.85
2022-11-03T04:40:12.452Z,19.85
2022-11-03T04:40:43.872Z,19.85
2022-11-03T04:41:15.302Z,19.85
2022-11-03T04:41:46.707Z,19.85
2022-11-03T04:42:18.147Z,19.85
2022-11-03T04:42:49.546Z,19.85
2022-11-03T04:43:20.943Z,19.85
2022-11-03T04:43:52.331Z,19.85
2022-11-03T04:44:23.737Z,19.85
2022-11-03T04:44:55.230Z,19.84
2022-11-03T04:45:26.613Z,19.85
2022-11-03T04:45:58.031Z,19.84
2022-11-03T04:46:29.458Z,19.84
2022-11-03T04:47:00.975Z,19.84
2022-11-03T04:47:32.359Z,19.83
2022-11-03T04:48:03.740Z,19.83
2022-11-03T04:48:35.126Z,19.82
2022-11-03T04:49:06.514Z,19.83
2022-11-03T04:49:37.897Z,19.82
2022-11-03T04:50:09.287Z,19.83
2022-11-03T04:50:44.187Z,19.82
2022-11-03T04:51:18.054Z,19.82
2022-11-03T04:51:49.453Z,19.82
2022-11-03T04:52:20.962Z,19.81
2022-11-03T04:52:52.378Z,19.81
2022-11-03T04:53:23.767Z,19.81
2022-11-03T04:53:55.152Z,19.80
2022-11-03T04:54:26.549Z,19.81
2022-11-03T04:54:57.944Z,19.81
2022-11-03T04:55:29.325Z,19.80
2022-11-03T04:56:06.075Z,19.79
2022-11-03T04:56:38.467Z,19.81
2022-11-03T04:57:09.851Z,19.81
2022-11-03T04:57:41.379Z,19.80
2022-11-03T04:58:12.796Z,19.80
2022-11-03T04:58:44.181Z,19.80
2022-11-03T04:59:15.571Z,19.79
2022-11-03T04:59:46.954Z,19.79
2022-11-03T05:00:18.348Z,19.80
2022-11-03T05:00:49.882Z,19.80
2022-11-03T05:01:24.191Z,19.80
2022-11-03T05:01:56.223Z,19.79
2022-11-03T05:02:27.739Z,19.79
2022-11-03T05:02:59.190Z,19.79
2022-11-03T05:03:30.575Z,19.79
2022-11-03T05:04:01.982Z,19.79
2022-11-03T05:04:33.375Z,19.78
2022-11-03T05:05:04.767Z,19.78
2022-11-03T05:05:36.160Z,19.78
2022-11-03T05:06:07.548Z,19.79
2022-11-03T05:06:38.989Z,19.78
2022-11-03T05:07:10.375Z,19.78
2022-11-03T05:07:41.785Z,19.78
2022-11-03T05:08:13.286Z,19.78
2022-11-03T05:08:44.665Z,19.78
2022-11-03T05:09:16.078Z,19.77
2022-11-03T05:09:47.471Z,19.77
2022-11-03T05:10:18.861Z,19.78
2022-11-03T05:10:50.266Z,19.75
2022-11-03T05:11:21.659Z,19.77
2022-11-03T05:11:53.042Z,19.77
2022-11-03T05:12:24.447Z,19.77
2022-11-03T05:12:55.849Z,19.74
2022-11-03T05:13:27.350Z,19.76
2022-11-03T05:13:58.734Z,19.75
2022-11-03T05:14:30.255Z,19.76
2022-11-03T05:15:01.647Z,19.74
2022-11-03T05:15:33.041Z,19.76
2022-11-03T05:16:04.432Z,19.76
2022-11-03T05:16:35.844Z,19.76
2022-11-03T05:17:07.226Z,19.76
2022-11-03T05:17:38.636Z,19.76
2022-11-03T05:18:10.033Z,19.75
2022-11-03T05:18:41.496Z,19.74
2022-11-03T05:19:12.894Z,19.74
2022-11-03T05:19:44.314Z,19.75
2022-11-03T05:20:15.699Z,19.74
2022-11-03T05:20:47.106Z,19.74
2022-11-03T05:21:18.494Z,19.74
2022-11-03T05:21:49.885Z,19.73
2022-11-03T05:22:21.292Z,19.73
2022-11-03T05:22:52.682Z,19.74
2022-11-03T05:23:24.066Z,19.74
2022-11-03T05:23:55.579Z,19.73
2022-11-03T05:24:26.966Z,19.73
2022-11-03T05:24:58.411Z,19.72
2022-11-03T05:25:29.807Z,19.73
2022-11-03T05:26:01.204Z,19.74
2022-11-03T05:26:32.594Z,19.73
2022-11-03T05:27:04.000Z,19.73
2022-11-03T05:27:35.399Z,19.73
2022-11-03T05:28:06.957Z,19.73
2022-11-03T05:28:38.512Z,19.72
2022-11-03T05:29:10.031Z,19.73
2022-11-03T05:29:41.420Z,19.72
2022-11-03T05:30:12.808Z,19.72
2022-11-03T05:30:44.195Z,19.72
2022-11-03T05:31:15.584Z,19.72
2022-11-03T05:31:46.974Z,19.71
2022-11-03T05:32:18.379Z,19.72
2022-11-03T05:32:49.770Z,19.72
2022-11-03T05:33:21.153Z,19.71
2022-11-03T05:33:52.543Z,19.71
2022-11-03T05:34:24.087Z,19.71
2022-11-03T05:34:55.471Z,19.70
2022-11-03T05:35:26.929Z,19.71
2022-11-03T05:35:58.345Z,19.71
2022-11-03T05:36:29.743Z,19.71
2022-11-03T05:37:01.186Z,19.71
2022-11-03T05:37:32.597Z,19.71
2022-11-03T05:38:04.173Z,19.69
2022-11-03T05:38:35.812Z,19.70
2022-11-03T05:39:07.200Z,19.69
2022-11-03T05:39:38.636Z,19.69
2022-11-03T05:40:10.046Z,19.70
2022-11-03T05:40:41.440Z,19.70
2022-11-03T05:41:12.832Z,19.70
2022-11-03T05:41:44.230Z,19.70
2022-11-03T05:42:15.633Z,19.68
2022-11-03T05:42:47.034Z,19.68
2022-11-03T05:43:18.443Z,19.69
2022-11-03T05:43:49.851Z,19.69
2022-11-03T05:44:21.243Z,19.69
2022-11-03T05:44:52.713Z,19.69
2022-11-03T05:45:24.111Z,19.68
2022-11-03T05:45:55.550Z,19.68
2022-11-03T05:46:26.977Z,19.67
2022-11-03T05:46:58.379Z,19.67
2022-11-03T05:47:29.767Z,19.68
2022-11-03T05:48:01.157Z,19.68
2022-11-03T05:48:32.551Z,19.68
2022-11-03T05:49:03.948Z,19.67
2022-11-03T05:49:35.506Z,19.66
2022-11-03T05:50:07.007Z,19.68
2022-11-03T05:50:38.395Z,19.67
2022-11-03T05:51:09.782Z,19.67
2022-11-03T05:51:41.166Z,19.67
2022-11-03T05:52:12.579Z,19.68
2022-11-03T05:52:43.973Z,19.67
2022-11-03T05:53:15.359Z,19.67
2022-11-03T05:53:46.768Z,19.67
2022-11-03T05:54:19.645Z,19.67
2022-11-03T05:54:51.318Z,19.67
2022-11-03T05:55:22.787Z,19.66
2022-11-03T05:55:54.176Z,19.65
2022-11-03T05:56:25.571Z,19.65
2022-11-03T05:56:56.962Z,19.65
2022-11-03T05:57:28.354Z,19.66
2022-11-03T05:57:59.738Z,19.64
2022-11-03T05:58:31.139Z,19.65
2022-11-03T05:59:02.536Z,19.64
2022-11-03T05:59:33.928Z,19.65
2022-11-03T06:00:05.327Z,19.65
2022-11-03T06:00:36.780Z,19.65
2022-11-03T06:01:08.175Z,19.65
2022-11-03T06:01:39.647Z,19.65
2022-11-03T06:02:11.234Z,19.64
2022-11-03T06:02:42.783Z,19.65
2022-11-03T06:03:14.243Z,19.64
2022-11-03T06:03:45.663Z,19.65
2022-11-03T06:04:17.052Z,19.64
2022-11-03T06:04:48.442Z,19.64
2022-11-03T06:05:19.835Z,19.64
2022-11-03T06:05:51.324Z,19.63
2022-11-03T06:06:24.185Z,19.63
2022-11-03T06:06:57.241Z,19.63
2022-11-03T06:07:28.650Z,19.63
2022-11-03T06:08:00.043Z,19.63
2022-11-03T06:08:31.435Z,19.63
2022-11-03T06:09:02.822Z,19.62
2022-11-03T06:09:34.220Z,19.62
2022-11-03T06:10:05.608Z,19.63
2022-11-03T06:10:37.007Z,19.62
2022-11-03T06:11:08.459Z,19.61
2022-11-03T06:11:39.846Z,19.61
2022-11-03T06:12:11.236Z,19.61
2022-11-03T06:12:42.642Z,19.63
2022-11-03T06:13:14.044Z,19.60
2022-11-03T06:13:45.430Z,19.62
2022-11-03T06:14:19.984Z,19.62
2022-11-03T06:14:55.308Z,19.60
2022-11-03T06:15:26.708Z,19.61
2022-11-03T06:15:58.118Z,19.61
2022-11-03T06:16:29.571Z,19.61
2022-11-03T06:17:00.979Z,19.61
2022-11-03T06:17:32.377Z,19.62
2022-11-03T06:18:03.767Z,19.61
2022-11-03T06:18:35.154Z,19.61
2022-11-03T06:19:06.544Z,19.60
2022-11-03T06:19:37.967Z,19.61
2022-11-03T06:20:09.364Z,19.60
2022-11-03T06:20:40.764Z,19.60
2022-11-03T06:21:12.204Z,19.60
2022-11-03T06:21:44.788Z,19.60
2022-11-03T06:22:16.315Z,19.59
2022-11-03T06:22:47.700Z,19.59
2022-11-03T06:23:19.112Z,19.59
2022-11-03T06:23:50.513Z,19.59
2022-11-03T06:24:21.919Z,19.59
2022-11-03T06:24:53.312Z,19.59
2022-11-03T06:25:24.700Z,19.59
2022-11-03T06:25:56.099Z,19.59
2022-11-03T06:26:27.507Z,19.58
2022-11-03T06:26:59.035Z,19.59
2022-11-03T06:27:30.431Z,19.59
2022-11-03T06:28:01.825Z,19.59
2022-11-03T06:28:33.230Z,19.59
2022-11-03T06:29:04.619Z,19.59
2022-11-03T06:29:36.006Z,19.59
2022-11-03T06:30:07.391Z,19.58
2022-11-03T06:30:38.836Z,19.59
2022-11-03T06:31:10.254Z,19.58
2022-11-03T06:31:41.662Z,19.59
2022-11-03T06:32:13.073Z,19.58
2022-11-03T06:32:44.459Z,19.58
2022-11-03T06:33:15.846Z,19.57
2022-11-03T06:33:47.243Z,19.58
2022-11-03T06:34:18.650Z,19.58
2022-11-03T06:34:50.047Z,19.59
2022-11-03T06:35:21.430Z,19.57
2022-11-03T06:35:52.823Z,19.58
2022-11-03T06:36:24.230Z,19.57
2022-11-03T06:36:55.663Z,19.57
2022-11-03T06:37:27.071Z,19.57
2022-11-03T06:37:58.486Z,19.56
2022-11-03T06:38:29.946Z,19.56
2022-11-03T06:39:01.355Z,19.56
2022-11-03T06:39:32.744Z,19.56
2022-11-03T06:40:04.142Z,19.56
2022-11-03T06:40:35.534Z,19.57
2022-11-03T06:41:06.947Z,19.56
2022-11-03T06:41:38.358Z,19.56
2022-11-03T06:42:09.963Z,19.56
2022-11-03T06:42:41.446Z,19.56
2022-11-03T06:43:12.854Z,19.57
2022-11-03T06:43:44.260Z,19.57
2022-11-03T06:44:15.655Z,19.56
2022-11-03T06:44:47.051Z,19.57
2022-11-03T06:45:18.440Z,19.56
2022-11-03T06:45:49.827Z,19.56